createdAt,value
2019-03-30T17:21:04.947Z,38.20
2019-03-30T17:24:08.868Z,44.20
2019-03-30T17:27:12.684Z,39.97
2019-03-30T17:30:16.921Z,37.60
2019-03-30T17:33:20.836Z,39.63
2019-03-30T17:36:24.715Z,36.50
2019-03-30T17:39:28.600Z,38.80
2019-03-30T17:42:32.486Z,37.27
2019-03-30T17:45:36.340Z,37.03
2019-03-30T17:48:40.196Z,42.57
2019-03-30T17:51:44.106Z,45.87
2019-03-30T17:54:47.968Z,44.00
2019-03-30T17:57:51.870Z,41.40
2019-03-30T18:00:55.750Z,38.70
2019-03-30T18:03:59.608Z,46.07
2019-03-30T18:07:03.538Z,58.77
2019-03-30T18:10:07.879Z,51.60
2019-03-30T18:13:11.708Z,50.00
2019-03-30T18:16:16.651Z,45.17
2019-03-30T18:19:20.471Z,36.80
2019-03-30T18:22:25.138Z,36.00
2019-03-30T18:25:29.071Z,38.00
2019-03-30T18:28:33.130Z,41.00
2019-03-30T18:31:36.980Z,42.23
2019-03-30T18:34:41.845Z,58.37
2019-03-30T18:37:45.876Z,77.83
2019-03-30T18:40:49.893Z,104.33
2019-03-30T18:43:53.805Z,87.27
2019-03-30T18:46:57.709Z,119.50
2019-03-30T18:50:01.567Z,156.07
2019-03-30T18:53:05.421Z,127.30
2019-03-30T18:56:09.535Z,99.47
2019-03-30T18:59:13.437Z,109.50
2019-03-30T19:02:19.182Z,97.93
2019-03-30T19:05:22.897Z,108.00
2019-03-30T19:08:26.774Z,115.60
2019-03-30T19:11:30.584Z,114.43
2019-03-30T19:14:35.955Z,101.93
2019-03-30T19:17:39.848Z,90.20
2019-03-30T19:20:43.689Z,79.80
2019-03-30T19:23:47.585Z,103.07
2019-03-30T19:26:51.445Z,112.97
2019-03-30T19:29:55.348Z,129.27
2019-03-30T19:33:01.073Z,116.43
2019-03-30T19:36:04.993Z,116.70
2019-03-30T19:39:09.575Z,105.40
2019-03-30T19:42:15.668Z,105.43
2019-03-30T19:45:19.173Z,85.97
2019-03-30T19:48:22.990Z,83.40
2019-03-30T19:51:26.990Z,80.40
2019-03-30T19:54:30.828Z,79.47
2019-03-30T19:57:36.200Z,74.97
2019-03-30T20:00:40.336Z,76.20
2019-03-30T20:03:44.368Z,78.07
2019-03-30T20:06:48.291Z,75.57
2019-03-30T20:09:52.159Z,73.20
2019-03-30T20:12:56.361Z,71.27
2019-03-30T20:16:00.280Z,72.37
2019-03-30T20:19:11.944Z,77.03
2019-03-30T20:22:09.681Z,79.90
2019-03-30T20:25:14.091Z,81.73
2019-03-30T20:28:17.975Z,82.10
2019-03-30T20:31:21.866Z,81.03
2019-03-30T20:34:25.700Z,93.40
2019-03-30T20:37:29.578Z,93.13
2019-03-30T20:40:33.472Z,92.73
2019-03-30T20:43:37.598Z,90.80
2019-03-30T20:46:43.665Z,92.87
2019-03-30T20:49:46.977Z,88.57
2019-03-30T20:52:50.866Z,84.90
2019-03-30T20:55:54.783Z,87.70
2019-03-30T20:58:58.669Z,83.60
2019-03-30T21:02:02.657Z,86.33
2019-03-30T21:05:07.225Z,83.57
2019-03-30T21:08:11.125Z,81.00
2019-03-30T21:11:14.985Z,77.33
2019-03-30T21:14:18.910Z,78.47
2019-03-30T21:17:22.744Z,76.60
2019-03-30T21:20:26.660Z,72.87
2019-03-30T21:23:30.527Z,73.53
2019-03-30T21:26:34.444Z,69.07
2019-03-30T21:29:38.337Z,68.20
2019-03-30T21:32:42.678Z,67.03
2019-03-30T21:35:46.553Z,72.73
2019-03-30T21:38:50.427Z,70.57
2019-03-30T21:41:54.285Z,80.53
2019-03-30T21:44:58.124Z,76.60
2019-03-30T21:48:02.008Z,79.53
2019-03-30T21:51:05.859Z,86.80
2019-03-30T21:54:09.710Z,85.03
2019-03-30T21:57:13.610Z,85.67
2019-03-30T22:00:34.835Z,84.67
2019-03-30T22:03:38.778Z,76.20
2019-03-30T22:06:43.250Z,77.67
2019-03-30T22:09:47.132Z,70.63
2019-03-30T22:12:51.009Z,69.47
2019-03-30T22:15:54.845Z,68.27
2019-03-30T22:18:58.782Z,62.10
2019-03-30T22:22:02.653Z,60.20
2019-03-30T22:25:07.154Z,61.47
2019-03-30T22:28:11.050Z,64.63
2019-03-30T22:31:14.948Z,62.37
2019-03-30T22:34:18.798Z,65.00
2019-03-30T22:37:22.645Z,71.57
2019-03-30T22:40:26.566Z,66.17
2019-03-30T22:43:30.517Z,84.47
2019-03-30T22:46:34.388Z,96.47
2019-03-30T22:49:38.325Z,97.77
2019-03-30T22:52:42.170Z,90.80
2019-03-30T22:55:46.049Z,89.90
2019-03-30T22:58:49.970Z,90.23
2019-03-30T23:01:53.851Z,85.53
2019-03-30T23:04:57.684Z,77.63
2019-03-30T23:08:01.808Z,71.70
2019-03-30T23:11:05.744Z,69.27
2019-03-30T23:14:09.575Z,62.03
2019-03-30T23:17:13.455Z,61.17
2019-03-30T23:20:17.339Z,61.17
2019-03-30T23:23:21.248Z,55.53
2019-03-30T23:26:25.085Z,47.83
2019-03-30T23:29:28.949Z,51.17
2019-03-30T23:32:32.825Z,46.70
2019-03-30T23:35:36.650Z,48.27
2019-03-30T23:38:40.532Z,49.33
2019-03-30T23:41:44.348Z,49.57
2019-03-30T23:44:48.230Z,50.67
2019-03-30T23:47:52.136Z,48.37
2019-03-30T23:50:55.952Z,49.40
2019-03-30T23:53:59.800Z,52.47
2019-03-30T23:57:03.701Z,49.47
